sensor_id;sensor_type;location;lat;lon;timestamp;temperature;humidity
20147;DHT22;10234;50.856;15.716;2023-03-31T00:06:36;7.70;99.90
20147;DHT22;10234;50.856;15.716;2023-03-31T00:09:08;7.70;99.90
20147;DHT22;10234;50.856;15.716;2023-03-31T00:11:37;7.80;99.90
20147;DHT22;10234;50.856;15.716;2023-03-31T00:24:00;7.30;99.90
20147;DHT22;10234;50.856;15.716;2023-03-31T00:26:28;8.40;99.90
20147;DHT22;10234;50.856;15.716;2023-03-31T00:31:25;6.50;99.90
20147;DHT22;10234;50.856;15.716;2023-03-31T00:44:09;6.70;99.90
20147;DHT22;10234;50.856;15.716;2023-03-31T00:46:41;6.70;99.90
20147;DHT22;10234;50.856;15.716;2023-03-31T00:49:15;6.70;99.90
20147;DHT22;10234;50.856;15.716;2023-03-31T00:51:47;7.10;99.90
20147;DHT22;10234;50.856;15.716;2023-03-31T00:56:45;6.60;99.90
20147;DHT22;10234;50.856;15.716;2023-03-31T01:04:13;6.50;99.90
20147;DHT22;10234;50.856;15.716;2023-03-31T01:06:47;6.50;99.90
20147;DHT22;10234;50.856;15.716;2023-03-31T01:09:22;6.50;99.90
20147;DHT22;10234;50.856;15.716;2023-03-31T01:19:19;6.80;99.90
20147;DHT22;10234;50.856;15.716;2023-03-31T01:22:16;6.90;99.90
20147;DHT22;10234;50.856;15.716;2023-03-31T01:27:45;7.30;99.90
20147;DHT22;10234;50.856;15.716;2023-03-31T01:30:51;7.40;99.90
20147;DHT22;10234;50.856;15.716;2023-03-31T01:33:48;7.40;99.90
20147;DHT22;10234;50.856;15.716;2023-03-31T01:36:42;7.30;99.90
20147;DHT22;10234;50.856;15.716;2023-03-31T01:42:14;7.20;99.90
20147;DHT22;10234;50.856;15.716;2023-03-31T01:44:44;7.10;99.90
20147;DHT22;10234;50.856;15.716;2023-03-31T01:47:15;7.10;99.90
20147;DHT22;10234;50.856;15.716;2023-03-31T01:49:53;7.10;99.90
20147;DHT22;10234;50.856;15.716;2023-03-31T01:52:25;6.90;99.90
20147;DHT22;10234;50.856;15.716;2023-03-31T01:55:00;7.00;99.90
20147;DHT22;10234;50.856;15.716;2023-03-31T01:57:33;7.00;99.90
20147;DHT22;10234;50.856;15.716;2023-03-31T02:00:04;6.90;99.90
20147;DHT22;10234;50.856;15.716;2023-03-31T02:02:37;6.80;99.90
20147;DHT22;10234;50.856;15.716;2023-03-31T02:05:08;6.70;99.90
20147;DHT22;10234;50.856;15.716;2023-03-31T02:10:07;6.30;99.90
20147;DHT22;10234;50.856;15.716;2023-03-31T02:12:39;6.20;99.90
20147;DHT22;10234;50.856;15.716;2023-03-31T02:17:37;5.30;99.90
20147;DHT22;10234;50.856;15.716;2023-03-31T02:20:09;6.20;99.90
20147;DHT22;10234;50.856;15.716;2023-03-31T02:22:41;6.20;99.90
20147;DHT22;10234;50.856;15.716;2023-03-31T02:25:10;6.30;99.90
20147;DHT22;10234;50.856;15.716;2023-03-31T02:27:41;6.40;99.90
20147;DHT22;10234;50.856;15.716;2023-03-31T02:30:11;6.50;99.90
20147;DHT22;10234;50.856;15.716;2023-03-31T02:32:40;6.50;99.90
20147;DHT22;10234;50.856;15.716;2023-03-31T02:35:11;6.60;99.90
20147;DHT22;10234;50.856;15.716;2023-03-31T02:37:40;6.70;99.90
20147;DHT22;10234;50.856;15.716;2023-03-31T02:40:10;6.70;99.90
20147;DHT22;10234;50.856;15.716;2023-03-31T02:42:40;6.80;99.90
20147;DHT22;10234;50.856;15.716;2023-03-31T02:45:39;6.80;99.90
20147;DHT22;10234;50.856;15.716;2023-03-31T02:48:09;6.70;99.90
20147;DHT22;10234;50.856;15.716;2023-03-31T02:53:30;6.50;99.90
20147;DHT22;10234;50.856;15.716;2023-03-31T02:56:10;6.40;99.90
20147;DHT22;10234;50.856;15.716;2023-03-31T02:59:15;6.30;99.90
20147;DHT22;10234;50.856;15.716;2023-03-31T03:02:00;6.10;99.90
20147;DHT22;10234;50.856;15.716;2023-03-31T03:04:41;5.90;99.90
20147;DHT22;10234;50.856;15.716;2023-03-31T03:07:23;5.70;99.90
20147;DHT22;10234;50.856;15.716;2023-03-31T03:09:58;5.60;99.90
20147;DHT22;10234;50.856;15.716;2023-03-31T03:12:32;5.40;99.90
20147;DHT22;10234;50.856;15.716;2023-03-31T03:15:07;5.30;99.90
20147;DHT22;10234;50.856;15.716;2023-03-31T03:17:39;5.20;99.90
20147;DHT22;10234;50.856;15.716;2023-03-31T03:20:08;5.00;99.90
20147;DHT22;10234;50.856;15.716;2023-03-31T03:22:36;5.00;99.90
20147;DHT22;10234;50.856;15.716;2023-03-31T03:30:00;4.90;99.90
20147;DHT22;10234;50.856;15.716;2023-03-31T03:32:31;4.90;99.90
20147;DHT22;10234;50.856;15.716;2023-03-31T03:34:58;4.50;99.90
20147;DHT22;10234;50.856;15.716;2023-03-31T03:39:53;4.50;99.90
20147;DHT22;10234;50.856;15.716;2023-03-31T03:42:20;4.50;99.90
20147;DHT22;10234;50.856;15.716;2023-03-31T03:44:47;4.60;99.90
20147;DHT22;10234;50.856;15.716;2023-03-31T03:57:05;4.80;99.90
20147;DHT22;10234;50.856;15.716;2023-03-31T03:59:32;4.70;99.90
20147;DHT22;10234;50.856;15.716;2023-03-31T04:01:59;4.50;99.90
20147;DHT22;10234;50.856;15.716;2023-03-31T04:04:26;4.40;99.90
20147;DHT22;10234;50.856;15.716;2023-03-31T04:19:13;4.30;99.90
20147;DHT22;10234;50.856;15.716;2023-03-31T04:44:04;4.50;99.90
20147;DHT22;10234;50.856;15.716;2023-03-31T04:46:32;4.60;99.90
20147;DHT22;10234;50.856;15.716;2023-03-31T04:51:28;4.80;99.90
20147;DHT22;10234;50.856;15.716;2023-03-31T04:53:55;5.00;99.90
20147;DHT22;10234;50.856;15.716;2023-03-31T04:56:22;5.00;99.90
20147;DHT22;10234;50.856;15.716;2023-03-31T05:06:15;5.40;99.90
20147;DHT22;10234;50.856;15.716;2023-03-31T05:16:11;8.20;99.90
20147;DHT22;10234;50.856;15.716;2023-03-31T05:21:10;8.70;99.90
20147;DHT22;10234;50.856;15.716;2023-03-31T05:23:38;8.70;99.90
20147;DHT22;10234;50.856;15.716;2023-03-31T05:31:00;9.60;99.90
20147;DHT22;10234;50.856;15.716;2023-03-31T05:38:25;9.10;99.90
20147;DHT22;10234;50.856;15.716;2023-03-31T05:40:54;9.00;99.90
20147;DHT22;10234;50.856;15.716;2023-03-31T05:45:48;9.30;99.90
20147;DHT22;10234;50.856;15.716;2023-03-31T05:48:15;9.50;99.90
20147;DHT22;10234;50.856;15.716;2023-03-31T05:58:06;9.40;99.90
20147;DHT22;10234;50.856;15.716;2023-03-31T06:00:33;9.60;99.90
20147;DHT22;10234;50.856;15.716;2023-03-31T06:12:51;9.00;99.90
20147;DHT22;10234;50.856;15.716;2023-03-31T06:20:13;8.90;99.90
20147;DHT22;10234;50.856;15.716;2023-03-31T06:25:09;9.20;99.90
20147;DHT22;10234;50.856;15.716;2023-03-31T06:37:25;9.30;99.90
20147;DHT22;10234;50.856;15.716;2023-03-31T06:42:21;9.40;99.90
20147;DHT22;10234;50.856;15.716;2023-03-31T06:59:34;11.30;99.90
20147;DHT22;10234;50.856;15.716;2023-03-31T07:06:57;13.10;99.90
20147;DHT22;10234;50.856;15.716;2023-03-31T07:26:38;21.20;84.60
20147;DHT22;10234;50.856;15.716;2023-03-31T07:34:02;18.40;76.50
20147;DHT22;10234;50.856;15.716;2023-03-31T07:36:30;17.00;83.10
20147;DHT22;10234;50.856;15.716;2023-03-31T07:38:57;15.80;99.90
20147;DHT22;10234;50.856;15.716;2023-03-31T07:46:21;15.00;99.90
20147;DHT22;10234;50.856;15.716;2023-03-31T07:48:49;14.30;99.90
20147;DHT22;10234;50.856;15.716;2023-03-31T07:51:20;14.10;99.90
20147;DHT22;10234;50.856;15.716;2023-03-31T07:56:17;14.40;99.90
20147;DHT22;10234;50.856;15.716;2023-03-31T07:58:45;14.20;99.90
20147;DHT22;10234;50.856;15.716;2023-03-31T08:01:14;14.10;99.90
20147;DHT22;10234;50.856;15.716;2023-03-31T08:08:38;14.60;99.90
20147;DHT22;10234;50.856;15.716;2023-03-31T08:16:02;14.10;99.90
20147;DHT22;10234;50.856;15.716;2023-03-31T08:25:53;13.60;99.90
20147;DHT22;10234;50.856;15.716;2023-03-31T08:40:39;14.00;99.90
20147;DHT22;10234;50.856;15.716;2023-03-31T08:43:14;14.00;99.90
20147;DHT22;10234;50.856;15.716;2023-03-31T08:45:45;13.90;99.90
20147;DHT22;10234;50.856;15.716;2023-03-31T08:48:19;14.10;99.90
20147;DHT22;10234;50.856;15.716;2023-03-31T08:50:52;14.50;99.90
20147;DHT22;10234;50.856;15.716;2023-03-31T08:53:24;14.50;99.90
20147;DHT22;10234;50.856;15.716;2023-03-31T08:55:53;14.10;99.90
20147;DHT22;10234;50.856;15.716;2023-03-31T08:58:31;13.90;99.90
20147;DHT22;10234;50.856;15.716;2023-03-31T09:01:06;14.10;99.90
20147;DHT22;10234;50.856;15.716;2023-03-31T09:03:38;14.30;99.90
20147;DHT22;10234;50.856;15.716;2023-03-31T09:06:12;14.10;99.90
20147;DHT22;10234;50.856;15.716;2023-03-31T09:08:41;14.10;99.90
20147;DHT22;10234;50.856;15.716;2023-03-31T09:11:17;14.00;99.90
20147;DHT22;10234;50.856;15.716;2023-03-31T09:16:47;15.30;99.90
20147;DHT22;10234;50.856;15.716;2023-03-31T09:19:19;14.90;99.90
20147;DHT22;10234;50.856;15.716;2023-03-31T09:21:49;14.80;99.90
20147;DHT22;10234;50.856;15.716;2023-03-31T09:24:21;14.90;99.90
20147;DHT22;10234;50.856;15.716;2023-03-31T09:26:51;15.10;99.90
20147;DHT22;10234;50.856;15.716;2023-03-31T09:29:22;15.10;99.90
20147;DHT22;10234;50.856;15.716;2023-03-31T09:31:53;14.60;99.90
20147;DHT22;10234;50.856;15.716;2023-03-31T09:34:23;14.90;99.90
20147;DHT22;10234;50.856;15.716;2023-03-31T09:41:47;14.10;99.90
20147;DHT22;10234;50.856;15.716;2023-03-31T09:44:22;14.00;99.90
20147;DHT22;10234;50.856;15.716;2023-03-31T09:49:21;13.30;99.90
20147;DHT22;10234;50.856;15.716;2023-03-31T09:51:59;13.00;99.90
20147;DHT22;10234;50.856;15.716;2023-03-31T09:54:34;12.80;99.90
20147;DHT22;10234;50.856;15.716;2023-03-31T09:57:10;12.80;99.90
20147;DHT22;10234;50.856;15.716;2023-03-31T09:59:38;12.40;99.90
20147;DHT22;10234;50.856;15.716;2023-03-31T10:02:23;12.30;99.90
20147;DHT22;10234;50.856;15.716;2023-03-31T10:04:53;12.20;99.90
20147;DHT22;10234;50.856;15.716;2023-03-31T10:07:22;11.90;99.90
20147;DHT22;10234;50.856;15.716;2023-03-31T10:12:20;11.70;99.90
20147;DHT22;10234;50.856;15.716;2023-03-31T10:14:50;11.70;99.90
20147;DHT22;10234;50.856;15.716;2023-03-31T10:17:18;11.70;99.90
20147;DHT22;10234;50.856;15.716;2023-03-31T10:19:50;11.70;99.90
20147;DHT22;10234;50.856;15.716;2023-03-31T10:22:29;11.70;99.90
20147;DHT22;10234;50.856;15.716;2023-03-31T10:25:13;11.80;99.90
20147;DHT22;10234;50.856;15.716;2023-03-31T10:27:43;11.80;99.90
20147;DHT22;10234;50.856;15.716;2023-03-31T10:30:17;11.80;99.90
20147;DHT22;10234;50.856;15.716;2023-03-31T10:35:21;12.50;99.90
20147;DHT22;10234;50.856;15.716;2023-03-31T10:37:53;13.00;99.90
20147;DHT22;10234;50.856;15.716;2023-03-31T10:40:22;13.00;99.90
20147;DHT22;10234;50.856;15.716;2023-03-31T10:42:59;12.90;99.90
20147;DHT22;10234;50.856;15.716;2023-03-31T10:45:28;12.90;99.90
20147;DHT22;10234;50.856;15.716;2023-03-31T10:47:58;12.80;99.90
20147;DHT22;10234;50.856;15.716;2023-03-31T10:50:27;12.70;99.90
20147;DHT22;10234;50.856;15.716;2023-03-31T10:53:02;12.70;99.90
20147;DHT22;10234;50.856;15.716;2023-03-31T10:55:35;12.90;99.90
20147;DHT22;10234;50.856;15.716;2023-03-31T10:58:12;13.00;99.90
20147;DHT22;10234;50.856;15.716;2023-03-31T11:00:49;13.10;99.90
20147;DHT22;10234;50.856;15.716;2023-03-31T11:04:01;13.40;99.90
20147;DHT22;10234;50.856;15.716;2023-03-31T11:06:36;13.40;99.90
20147;DHT22;10234;50.856;15.716;2023-03-31T11:09:24;13.10;99.90
20147;DHT22;10234;50.856;15.716;2023-03-31T11:12:00;13.00;99.90
20147;DHT22;10234;50.856;15.716;2023-03-31T11:14:38;12.90;99.90
20147;DHT22;10234;50.856;15.716;2023-03-31T11:17:15;12.90;99.90
20147;DHT22;10234;50.856;15.716;2023-03-31T11:19:52;12.80;99.90
20147;DHT22;10234;50.856;15.716;2023-03-31T11:22:26;12.60;99.90
20147;DHT22;10234;50.856;15.716;2023-03-31T11:25:27;12.50;99.90
20147;DHT22;10234;50.856;15.716;2023-03-31T11:28:18;10.30;99.90
20147;DHT22;10234;50.856;15.716;2023-03-31T11:30:53;12.50;99.90
20147;DHT22;10234;50.856;15.716;2023-03-31T11:33:36;12.50;99.90
20147;DHT22;10234;50.856;15.716;2023-03-31T11:36:19;12.60;99.90
20147;DHT22;10234;50.856;15.716;2023-03-31T11:39:02;12.50;99.90
20147;DHT22;10234;50.856;15.716;2023-03-31T11:41:38;12.60;99.90
20147;DHT22;10234;50.856;15.716;2023-03-31T11:44:10;12.70;99.90
20147;DHT22;10234;50.856;15.716;2023-03-31T11:46:42;12.90;99.90
20147;DHT22;10234;50.856;15.716;2023-03-31T11:49:15;12.90;99.90
20147;DHT22;10234;50.856;15.716;2023-03-31T11:51:47;12.80;99.90
20147;DHT22;10234;50.856;15.716;2023-03-31T11:54:22;12.80;99.90
20147;DHT22;10234;50.856;15.716;2023-03-31T11:56:52;12.80;99.90
20147;DHT22;10234;50.856;15.716;2023-03-31T11:59:21;12.70;99.90
20147;DHT22;10234;50.856;15.716;2023-03-31T12:01:56;12.60;99.90
20147;DHT22;10234;50.856;15.716;2023-03-31T12:04:31;12.40;99.90
20147;DHT22;10234;50.856;15.716;2023-03-31T12:07:03;12.50;99.90
20147;DHT22;10234;50.856;15.716;2023-03-31T12:09:35;12.50;99.90
20147;DHT22;10234;50.856;15.716;2023-03-31T12:12:10;12.50;99.90
20147;DHT22;10234;50.856;15.716;2023-03-31T12:14:42;12.50;99.90
20147;DHT22;10234;50.856;15.716;2023-03-31T12:19:45;12.60;99.90
20147;DHT22;10234;50.856;15.716;2023-03-31T12:22:17;12.40;99.90
20147;DHT22;10234;50.856;15.716;2023-03-31T12:27:16;12.60;99.90
20147;DHT22;10234;50.856;15.716;2023-03-31T12:29:52;12.40;99.90
20147;DHT22;10234;50.856;15.716;2023-03-31T12:32:23;12.50;99.90
20147;DHT22;10234;50.856;15.716;2023-03-31T12:34:55;12.90;99.90
20147;DHT22;10234;50.856;15.716;2023-03-31T12:40:36;12.20;99.90
20147;DHT22;10234;50.856;15.716;2023-03-31T12:43:36;12.20;99.90
20147;DHT22;10234;50.856;15.716;2023-03-31T12:46:19;11.80;99.90
20147;DHT22;10234;50.856;15.716;2023-03-31T12:49:12;11.70;99.90
20147;DHT22;10234;50.856;15.716;2023-03-31T12:51:59;11.60;99.90
20147;DHT22;10234;50.856;15.716;2023-03-31T12:55:00;11.50;99.90
20147;DHT22;10234;50.856;15.716;2023-03-31T13:00:29;11.40;99.90
20147;DHT22;10234;50.856;15.716;2023-03-31T13:03:37;11.60;99.90
20147;DHT22;10234;50.856;15.716;2023-03-31T13:08:50;11.50;99.90
20147;DHT22;10234;50.856;15.716;2023-03-31T13:11:19;11.50;99.90
20147;DHT22;10234;50.856;15.716;2023-03-31T13:13:58;11.70;99.90
20147;DHT22;10234;50.856;15.716;2023-03-31T13:16:27;11.80;99.90
20147;DHT22;10234;50.856;15.716;2023-03-31T13:18:55;11.70;99.90
20147;DHT22;10234;50.856;15.716;2023-03-31T13:23:50;11.60;99.90
20147;DHT22;10234;50.856;15.716;2023-03-31T13:26:48;11.60;99.90
20147;DHT22;10234;50.856;15.716;2023-03-31T13:29:24;11.50;99.90
20147;DHT22;10234;50.856;15.716;2023-03-31T13:32:18;11.40;99.90
20147;DHT22;10234;50.856;15.716;2023-03-31T13:34:57;11.40;99.90
20147;DHT22;10234;50.856;15.716;2023-03-31T13:37:52;11.30;99.90
20147;DHT22;10234;50.856;15.716;2023-03-31T13:40:37;11.30;99.90
20147;DHT22;10234;50.856;15.716;2023-03-31T13:47:03;11.40;99.90
20147;DHT22;10234;50.856;15.716;2023-03-31T13:49:57;11.50;99.90
20147;DHT22;10234;50.856;15.716;2023-03-31T13:52:37;11.50;99.90
20147;DHT22;10234;50.856;15.716;2023-03-31T13:55:35;11.60;99.90
20147;DHT22;10234;50.856;15.716;2023-03-31T13:58:31;11.90;99.90
20147;DHT22;10234;50.856;15.716;2023-03-31T14:04:15;12.20;99.90
20147;DHT22;10234;50.856;15.716;2023-03-31T14:06:55;12.00;99.90
20147;DHT22;10234;50.856;15.716;2023-03-31T14:09:25;12.10;99.90
20147;DHT22;10234;50.856;15.716;2023-03-31T14:11:54;12.10;99.90
20147;DHT22;10234;50.856;15.716;2023-03-31T14:14:24;12.10;99.90
20147;DHT22;10234;50.856;15.716;2023-03-31T14:16:54;12.10;99.90
20147;DHT22;10234;50.856;15.716;2023-03-31T14:19:49;12.30;99.90
20147;DHT22;10234;50.856;15.716;2023-03-31T14:22:27;12.30;99.90
20147;DHT22;10234;50.856;15.716;2023-03-31T14:25:04;12.50;99.90
20147;DHT22;10234;50.856;15.716;2023-03-31T14:27:43;12.60;99.90
20147;DHT22;10234;50.856;15.716;2023-03-31T14:30:17;12.60;99.90
20147;DHT22;10234;50.856;15.716;2023-03-31T14:32:55;12.70;99.90
20147;DHT22;10234;50.856;15.716;2023-03-31T14:35:30;12.80;99.90
20147;DHT22;10234;50.856;15.716;2023-03-31T14:38:08;12.70;99.90
20147;DHT22;10234;50.856;15.716;2023-03-31T14:40:44;12.60;99.90
20147;DHT22;10234;50.856;15.716;2023-03-31T14:48:14;11.90;99.90
20147;DHT22;10234;50.856;15.716;2023-03-31T14:50:43;11.80;99.90
20147;DHT22;10234;50.856;15.716;2023-03-31T14:53:16;11.70;99.90
20147;DHT22;10234;50.856;15.716;2023-03-31T14:55:44;11.60;99.90
20147;DHT22;10234;50.856;15.716;2023-03-31T14:58:16;11.50;99.90
20147;DHT22;10234;50.856;15.716;2023-03-31T15:08:13;11.60;99.90
20147;DHT22;10234;50.856;15.716;2023-03-31T15:10:46;11.60;99.90
20147;DHT22;10234;50.856;15.716;2023-03-31T15:13:19;11.80;99.90
20147;DHT22;10234;50.856;15.716;2023-03-31T15:18:14;12.30;99.90
20147;DHT22;10234;50.856;15.716;2023-03-31T15:23:20;12.80;99.90
20147;DHT22;10234;50.856;15.716;2023-03-31T15:25:53;12.70;99.90
20147;DHT22;10234;50.856;15.716;2023-03-31T15:28:22;12.60;99.90
20147;DHT22;10234;50.856;15.716;2023-03-31T15:30:50;12.40;99.90
20147;DHT22;10234;50.856;15.716;2023-03-31T15:33:20;12.10;99.90
20147;DHT22;10234;50.856;15.716;2023-03-31T15:38:16;11.60;99.90
20147;DHT22;10234;50.856;15.716;2023-03-31T15:40:44;11.10;99.90
20147;DHT22;10234;50.856;15.716;2023-03-31T15:43:16;11.10;99.90
20147;DHT22;10234;50.856;15.716;2023-03-31T15:45:49;10.90;99.90
20147;DHT22;10234;50.856;15.716;2023-03-31T15:48:20;10.80;99.90
20147;DHT22;10234;50.856;15.716;2023-03-31T15:50:49;10.80;99.90
20147;DHT22;10234;50.856;15.716;2023-03-31T15:53:35;11.00;99.90
20147;DHT22;10234;50.856;15.716;2023-03-31T15:56:03;11.00;99.90
20147;DHT22;10234;50.856;15.716;2023-03-31T15:58:54;11.00;99.90
20147;DHT22;10234;50.856;15.716;2023-03-31T16:03:52;10.90;99.90
20147;DHT22;10234;50.856;15.716;2023-03-31T16:06:25;10.90;99.90
20147;DHT22;10234;50.856;15.716;2023-03-31T16:08:58;10.80;99.90
20147;DHT22;10234;50.856;15.716;2023-03-31T16:11:34;10.60;99.90
20147;DHT22;10234;50.856;15.716;2023-03-31T16:14:07;10.50;99.90
20147;DHT22;10234;50.856;15.716;2023-03-31T16:19:05;10.10;99.90
20147;DHT22;10234;50.856;15.716;2023-03-31T16:21:37;10.10;99.90
20147;DHT22;10234;50.856;15.716;2023-03-31T16:29:03;9.90;99.90
20147;DHT22;10234;50.856;15.716;2023-03-31T16:31:33;10.00;99.90
20147;DHT22;10234;50.856;15.716;2023-03-31T16:34:02;9.90;99.90
20147;DHT22;10234;50.856;15.716;2023-03-31T16:41:27;9.80;99.90
20147;DHT22;10234;50.856;15.716;2023-03-31T16:43:54;9.60;99.90
20147;DHT22;10234;50.856;15.716;2023-03-31T16:53:46;9.70;99.90
20147;DHT22;10234;50.856;15.716;2023-03-31T16:58:41;9.60;99.90
20147;DHT22;10234;50.856;15.716;2023-03-31T17:01:10;9.60;99.90
20147;DHT22;10234;50.856;15.716;2023-03-31T17:06:08;9.60;99.90
20147;DHT22;10234;50.856;15.716;2023-03-31T17:11:05;6.10;99.90
20147;DHT22;10234;50.856;15.716;2023-03-31T17:13:33;9.60;99.90
20147;DHT22;10234;50.856;15.716;2023-03-31T17:21:02;9.50;99.90
20147;DHT22;10234;50.856;15.716;2023-03-31T17:35:46;9.30;99.90
20147;DHT22;10234;50.856;15.716;2023-03-31T17:48:07;9.30;99.90
20147;DHT22;10234;50.856;15.716;2023-03-31T17:55:35;9.20;99.90
20147;DHT22;10234;50.856;15.716;2023-03-31T17:58:03;9.20;99.90
20147;DHT22;10234;50.856;15.716;2023-03-31T18:12:49;9.30;99.90
20147;DHT22;10234;50.856;15.716;2023-03-31T18:15:17;9.40;99.90
20147;DHT22;10234;50.856;15.716;2023-03-31T18:30:05;9.20;99.90
20147;DHT22;10234;50.856;15.716;2023-03-31T18:42:22;9.00;99.90
20147;DHT22;10234;50.856;15.716;2023-03-31T18:47:20;9.00;99.90
20147;DHT22;10234;50.856;15.716;2023-03-31T18:52:18;8.90;99.90
20147;DHT22;10234;50.856;15.716;2023-03-31T19:04:36;9.10;99.90
20147;DHT22;10234;50.856;15.716;2023-03-31T19:31:39;9.00;99.90
20147;DHT22;10234;50.856;15.716;2023-03-31T19:34:08;9.30;99.90
20147;DHT22;10234;50.856;15.716;2023-03-31T19:39:05;9.10;99.90
20147;DHT22;10234;50.856;15.716;2023-03-31T19:48:54;9.20;99.90
20147;DHT22;10234;50.856;15.716;2023-03-31T19:53:48;9.00;99.90
20147;DHT22;10234;50.856;15.716;2023-03-31T19:56:17;8.90;99.90
20147;DHT22;10234;50.856;15.716;2023-03-31T19:58:45;8.80;99.90
20147;DHT22;10234;50.856;15.716;2023-03-31T20:01:17;8.80;99.90
20147;DHT22;10234;50.856;15.716;2023-03-31T20:03:45;8.70;99.90
20147;DHT22;10234;50.856;15.716;2023-03-31T20:06:18;8.10;99.90
20147;DHT22;10234;50.856;15.716;2023-03-31T20:08:46;9.50;99.90
20147;DHT22;10234;50.856;15.716;2023-03-31T20:11:14;8.30;99.90
20147;DHT22;10234;50.856;15.716;2023-03-31T20:13:43;8.20;99.90
20147;DHT22;10234;50.856;15.716;2023-03-31T20:16:11;8.10;99.90
20147;DHT22;10234;50.856;15.716;2023-03-31T20:21:10;7.90;99.90
20147;DHT22;10234;50.856;15.716;2023-03-31T20:23:38;7.80;99.90
20147;DHT22;10234;50.856;15.716;2023-03-31T20:26:08;7.80;99.90
20147;DHT22;10234;50.856;15.716;2023-03-31T20:28:36;7.80;99.90
20147;DHT22;10234;50.856;15.716;2023-03-31T20:31:09;7.80;99.90
20147;DHT22;10234;50.856;15.716;2023-03-31T20:36:06;7.60;99.90
20147;DHT22;10234;50.856;15.716;2023-03-31T20:38:35;7.50;99.90
20147;DHT22;10234;50.856;15.716;2023-03-31T20:45:58;7.70;99.90
20147;DHT22;10234;50.856;15.716;2023-03-31T20:48:30;7.00;99.90
20147;DHT22;10234;50.856;15.716;2023-03-31T20:55:52;6.70;99.90
20147;DHT22;10234;50.856;15.716;2023-03-31T21:03:14;6.50;99.90
20147;DHT22;10234;50.856;15.716;2023-03-31T21:05:44;6.50;99.90
20147;DHT22;10234;50.856;15.716;2023-03-31T21:08:12;6.40;99.90
20147;DHT22;10234;50.856;15.716;2023-03-31T21:10:40;6.40;99.90
20147;DHT22;10234;50.856;15.716;2023-03-31T21:13:08;6.50;99.90
20147;DHT22;10234;50.856;15.716;2023-03-31T21:18:03;6.40;99.90
20147;DHT22;10234;50.856;15.716;2023-03-31T21:20:30;6.50;99.90
20147;DHT22;10234;50.856;15.716;2023-03-31T21:22:58;6.60;99.90
20147;DHT22;10234;50.856;15.716;2023-03-31T21:25:26;6.50;99.90
20147;DHT22;10234;50.856;15.716;2023-03-31T21:30:20;6.50;99.90
20147;DHT22;10234;50.856;15.716;2023-03-31T21:40:11;6.80;99.90
20147;DHT22;10234;50.856;15.716;2023-03-31T21:47:35;7.10;99.90
20147;DHT22;10234;50.856;15.716;2023-03-31T21:50:03;7.10;99.90
20147;DHT22;10234;50.856;15.716;2023-03-31T21:57:26;7.40;99.90
20147;DHT22;10234;50.856;15.716;2023-03-31T22:07:15;7.60;99.90
20147;DHT22;10234;50.856;15.716;2023-03-31T22:14:38;7.90;99.90
20147;DHT22;10234;50.856;15.716;2023-03-31T22:17:05;8.00;99.90
20147;DHT22;10234;50.856;15.716;2023-03-31T22:24:27;8.10;99.90
20147;DHT22;10234;50.856;15.716;2023-03-31T22:31:50;8.10;99.90
20147;DHT22;10234;50.856;15.716;2023-03-31T22:34:17;8.10;99.90
20147;DHT22;10234;50.856;15.716;2023-03-31T22:44:07;8.10;99.90
20147;DHT22;10234;50.856;15.716;2023-03-31T22:49:03;8.00;99.90
20147;DHT22;10234;50.856;15.716;2023-03-31T22:56:26;8.00;99.90
20147;DHT22;10234;50.856;15.716;2023-03-31T22:58:55;8.10;99.90
20147;DHT22;10234;50.856;15.716;2023-03-31T23:06:18;8.10;99.90
20147;DHT22;10234;50.856;15.716;2023-03-31T23:13:42;8.20;99.90
20147;DHT22;10234;50.856;15.716;2023-03-31T23:16:11;8.00;99.90
20147;DHT22;10234;50.856;15.716;2023-03-31T23:21:10;8.00;99.90
20147;DHT22;10234;50.856;15.716;2023-03-31T23:23:39;8.00;99.90
20147;DHT22;10234;50.856;15.716;2023-03-31T23:28:35;8.00;99.90
20147;DHT22;10234;50.856;15.716;2023-03-31T23:35:58;7.90;99.90
20147;DHT22;10234;50.856;15.716;2023-03-31T23:40:55;7.90;99.90
20147;DHT22;10234;50.856;15.716;2023-03-31T23:45:50;9.50;99.90
20147;DHT22;10234;50.856;15.716;2023-03-31T23:48:17;7.90;99.90
20147;DHT22;10234;50.856;15.716;2023-03-31T23:50:44;7.80;99.90
20147;DHT22;10234;50.856;15.716;2023-03-31T23:53:11;8.70;99.90
20147;DHT22;10234;50.856;15.716;2023-03-31T23:58:07;7.80;99.90
